sensor_id;sensor_type;location;lat;lon;timestamp;temperature;humidity
45535;DHT22;35892;48.798;9.698;2022-10-20T00:01:16;9.70;99.90
45535;DHT22;35892;48.798;9.698;2022-10-20T00:03:47;9.70;99.90
45535;DHT22;35892;48.798;9.698;2022-10-20T00:06:18;9.80;99.90
45535;DHT22;35892;48.798;9.698;2022-10-20T00:08:48;9.80;99.90
45535;DHT22;35892;48.798;9.698;2022-10-20T00:11:16;9.80;99.90
45535;DHT22;35892;48.798;9.698;2022-10-20T00:13:49;9.80;99.90
45535;DHT22;35892;48.798;9.698;2022-10-20T00:16:16;9.90;99.90
45535;DHT22;35892;48.798;9.698;2022-10-20T00:18:46;9.90;99.90
45535;DHT22;35892;48.798;9.698;2022-10-20T00:21:17;10.00;99.90
45535;DHT22;35892;48.798;9.698;2022-10-20T00:23:44;10.00;99.90
45535;DHT22;35892;48.798;9.698;2022-10-20T00:26:22;10.00;99.90
45535;DHT22;35892;48.798;9.698;2022-10-20T00:28:50;10.10;99.90
45535;DHT22;35892;48.798;9.698;2022-10-20T00:31:23;10.00;99.90
45535;DHT22;35892;48.798;9.698;2022-10-20T00:33:51;10.00;99.90
45535;DHT22;35892;48.798;9.698;2022-10-20T00:36:20;9.90;99.90
45535;DHT22;35892;48.798;9.698;2022-10-20T00:38:47;9.80;99.90
45535;DHT22;35892;48.798;9.698;2022-10-20T00:41:20;9.70;99.90
45535;DHT22;35892;48.798;9.698;2022-10-20T00:43:56;9.70;99.90
45535;DHT22;35892;48.798;9.698;2022-10-20T00:46:39;9.70;99.90
45535;DHT22;35892;48.798;9.698;2022-10-20T00:49:17;9.70;99.90
45535;DHT22;35892;48.798;9.698;2022-10-20T00:51:49;9.70;99.90
45535;DHT22;35892;48.798;9.698;2022-10-20T00:54:24;9.70;99.90
45535;DHT22;35892;48.798;9.698;2022-10-20T00:56:53;9.60;99.90
45535;DHT22;35892;48.798;9.698;2022-10-20T00:59:30;9.60;99.90
45535;DHT22;35892;48.798;9.698;2022-10-20T01:01:58;9.50;99.90
45535;DHT22;35892;48.798;9.698;2022-10-20T01:04:29;9.40;99.90
45535;DHT22;35892;48.798;9.698;2022-10-20T01:06:57;9.40;99.90
45535;DHT22;35892;48.798;9.698;2022-10-20T01:09:24;9.40;99.90
45535;DHT22;35892;48.798;9.698;2022-10-20T01:28:35;9.30;99.90
45535;DHT22;35892;48.798;9.698;2022-10-20T01:31:11;9.30;99.90
45535;DHT22;35892;48.798;9.698;2022-10-20T01:33:50;9.30;99.90
45535;DHT22;35892;48.798;9.698;2022-10-20T01:36:26;9.20;99.90
45535;DHT22;35892;48.798;9.698;2022-10-20T01:39:02;9.20;99.90
45535;DHT22;35892;48.798;9.698;2022-10-20T01:41:33;9.20;99.90
45535;DHT22;35892;48.798;9.698;2022-10-20T01:44:07;9.20;99.90
45535;DHT22;35892;48.798;9.698;2022-10-20T01:46:37;9.10;99.90
45535;DHT22;35892;48.798;9.698;2022-10-20T01:49:07;9.00;99.90
45535;DHT22;35892;48.798;9.698;2022-10-20T01:51:37;9.00;99.90
45535;DHT22;35892;48.798;9.698;2022-10-20T01:57:01;9.00;99.90
45535;DHT22;35892;48.798;9.698;2022-10-20T02:00:08;9.10;99.90
45535;DHT22;35892;48.798;9.698;2022-10-20T02:07:53;9.10;99.90
45535;DHT22;35892;48.798;9.698;2022-10-20T02:10:26;9.10;99.90
45535;DHT22;35892;48.798;9.698;2022-10-20T02:12:59;9.10;99.90
45535;DHT22;35892;48.798;9.698;2022-10-20T02:15:30;9.10;99.90
45535;DHT22;35892;48.798;9.698;2022-10-20T02:18:00;9.00;99.90
45535;DHT22;35892;48.798;9.698;2022-10-20T02:20:32;9.00;99.90
45535;DHT22;35892;48.798;9.698;2022-10-20T02:23:03;9.00;99.90
45535;DHT22;35892;48.798;9.698;2022-10-20T02:25:34;8.90;99.90
45535;DHT22;35892;48.798;9.698;2022-10-20T02:28:06;9.00;99.90
45535;DHT22;35892;48.798;9.698;2022-10-20T02:30:37;9.10;99.90
45535;DHT22;35892;48.798;9.698;2022-10-20T02:33:08;9.20;99.90
45535;DHT22;35892;48.798;9.698;2022-10-20T02:35:38;9.20;99.90
45535;DHT22;35892;48.798;9.698;2022-10-20T02:38:09;9.10;99.90
45535;DHT22;35892;48.798;9.698;2022-10-20T02:40:38;9.20;99.90
45535;DHT22;35892;48.798;9.698;2022-10-20T02:43:08;9.10;99.90
45535;DHT22;35892;48.798;9.698;2022-10-20T02:45:37;9.10;99.90
45535;DHT22;35892;48.798;9.698;2022-10-20T02:48:04;9.20;99.90
45535;DHT22;35892;48.798;9.698;2022-10-20T02:50:35;9.20;99.90
45535;DHT22;35892;48.798;9.698;2022-10-20T02:53:03;9.20;99.90
45535;DHT22;35892;48.798;9.698;2022-10-20T02:55:34;9.20;99.90
45535;DHT22;35892;48.798;9.698;2022-10-20T02:58:06;9.20;99.90
45535;DHT22;35892;48.798;9.698;2022-10-20T03:00:32;9.20;99.90
45535;DHT22;35892;48.798;9.698;2022-10-20T03:02:59;9.30;99.90
45535;DHT22;35892;48.798;9.698;2022-10-20T03:05:26;9.30;99.90
45535;DHT22;35892;48.798;9.698;2022-10-20T03:07:57;9.40;99.90
45535;DHT22;35892;48.798;9.698;2022-10-20T03:10:26;9.40;99.90
45535;DHT22;35892;48.798;9.698;2022-10-20T03:12:56;9.30;99.90
45535;DHT22;35892;48.798;9.698;2022-10-20T03:15:22;9.30;99.90
45535;DHT22;35892;48.798;9.698;2022-10-20T03:17:49;9.30;99.90
45535;DHT22;35892;48.798;9.698;2022-10-20T03:20:18;9.30;99.90
45535;DHT22;35892;48.798;9.698;2022-10-20T03:22:45;9.30;99.90
45535;DHT22;35892;48.798;9.698;2022-10-20T03:25:18;9.30;99.90
45535;DHT22;35892;48.798;9.698;2022-10-20T03:27:45;9.40;99.90
45535;DHT22;35892;48.798;9.698;2022-10-20T03:30:14;9.40;99.90
45535;DHT22;35892;48.798;9.698;2022-10-20T03:32:43;9.40;99.90
45535;DHT22;35892;48.798;9.698;2022-10-20T03:35:14;9.40;99.90
45535;DHT22;35892;48.798;9.698;2022-10-20T03:37:43;9.40;99.90
45535;DHT22;35892;48.798;9.698;2022-10-20T03:40:12;9.30;99.90
45535;DHT22;35892;48.798;9.698;2022-10-20T03:42:39;9.20;99.90
45535;DHT22;35892;48.798;9.698;2022-10-20T03:45:06;9.20;99.90
45535;DHT22;35892;48.798;9.698;2022-10-20T03:47:43;9.30;99.90
45535;DHT22;35892;48.798;9.698;2022-10-20T03:50:10;9.30;99.90
45535;DHT22;35892;48.798;9.698;2022-10-20T03:52:44;9.30;99.90
45535;DHT22;35892;48.798;9.698;2022-10-20T03:55:12;9.60;99.90
45535;DHT22;35892;48.798;9.698;2022-10-20T03:57:41;9.60;99.90
45535;DHT22;35892;48.798;9.698;2022-10-20T04:00:11;9.70;99.90
45535;DHT22;35892;48.798;9.698;2022-10-20T04:02:43;9.70;99.90
45535;DHT22;35892;48.798;9.698;2022-10-20T04:05:16;9.70;99.90
45535;DHT22;35892;48.798;9.698;2022-10-20T04:07:46;9.90;99.90
45535;DHT22;35892;48.798;9.698;2022-10-20T04:10:15;10.20;99.90
45535;DHT22;35892;48.798;9.698;2022-10-20T04:12:44;10.40;99.90
45535;DHT22;35892;48.798;9.698;2022-10-20T04:15:13;10.30;99.90
45535;DHT22;35892;48.798;9.698;2022-10-20T04:17:46;10.40;99.90
45535;DHT22;35892;48.798;9.698;2022-10-20T04:20:15;10.40;99.90
45535;DHT22;35892;48.798;9.698;2022-10-20T04:22:42;10.50;99.90
45535;DHT22;35892;48.798;9.698;2022-10-20T04:25:11;10.50;99.90
45535;DHT22;35892;48.798;9.698;2022-10-20T04:27:41;10.40;99.90
45535;DHT22;35892;48.798;9.698;2022-10-20T04:30:10;10.30;99.90
45535;DHT22;35892;48.798;9.698;2022-10-20T04:32:37;10.20;99.90
45535;DHT22;35892;48.798;9.698;2022-10-20T04:35:06;10.10;99.90
45535;DHT22;35892;48.798;9.698;2022-10-20T04:37:33;10.00;99.90
45535;DHT22;35892;48.798;9.698;2022-10-20T04:40:03;9.90;99.90
45535;DHT22;35892;48.798;9.698;2022-10-20T04:42:32;9.80;99.90
45535;DHT22;35892;48.798;9.698;2022-10-20T04:44:58;9.80;99.90
45535;DHT22;35892;48.798;9.698;2022-10-20T04:47:31;9.70;99.90
45535;DHT22;35892;48.798;9.698;2022-10-20T04:49:57;9.80;99.90
45535;DHT22;35892;48.798;9.698;2022-10-20T04:52:24;9.80;99.90
45535;DHT22;35892;48.798;9.698;2022-10-20T04:54:51;9.80;99.90
45535;DHT22;35892;48.798;9.698;2022-10-20T04:57:22;9.90;99.90
45535;DHT22;35892;48.798;9.698;2022-10-20T04:59:52;9.80;99.90
45535;DHT22;35892;48.798;9.698;2022-10-20T05:02:21;9.80;99.90
45535;DHT22;35892;48.798;9.698;2022-10-20T05:04:52;9.80;99.90
45535;DHT22;35892;48.798;9.698;2022-10-20T05:07:21;9.80;99.90
45535;DHT22;35892;48.798;9.698;2022-10-20T05:09:50;9.80;99.90
45535;DHT22;35892;48.798;9.698;2022-10-20T05:12:19;9.90;99.90
45535;DHT22;35892;48.798;9.698;2022-10-20T05:14:53;10.00;99.90
45535;DHT22;35892;48.798;9.698;2022-10-20T05:17:22;9.90;99.90
45535;DHT22;35892;48.798;9.698;2022-10-20T05:19:51;9.90;99.90
45535;DHT22;35892;48.798;9.698;2022-10-20T05:22:17;9.90;99.90
45535;DHT22;35892;48.798;9.698;2022-10-20T05:24:46;9.90;99.90
45535;DHT22;35892;48.798;9.698;2022-10-20T05:27:15;9.80;99.90
45535;DHT22;35892;48.798;9.698;2022-10-20T05:29:42;9.80;99.90
45535;DHT22;35892;48.798;9.698;2022-10-20T05:32:10;9.80;99.90
45535;DHT22;35892;48.798;9.698;2022-10-20T05:34:39;9.70;99.90
45535;DHT22;35892;48.798;9.698;2022-10-20T05:37:06;9.60;99.90
45535;DHT22;35892;48.798;9.698;2022-10-20T05:39:35;9.50;99.90
45535;DHT22;35892;48.798;9.698;2022-10-20T05:42:02;9.50;99.90
45535;DHT22;35892;48.798;9.698;2022-10-20T05:44:31;9.60;99.90
45535;DHT22;35892;48.798;9.698;2022-10-20T05:47:00;9.60;99.90
45535;DHT22;35892;48.798;9.698;2022-10-20T05:49:29;9.60;99.90
45535;DHT22;35892;48.798;9.698;2022-10-20T05:51:56;9.70;99.90
45535;DHT22;35892;48.798;9.698;2022-10-20T05:54:25;9.70;99.90
45535;DHT22;35892;48.798;9.698;2022-10-20T05:56:52;9.70;99.90
45535;DHT22;35892;48.798;9.698;2022-10-20T05:59:18;9.80;99.90
45535;DHT22;35892;48.798;9.698;2022-10-20T06:01:45;9.80;99.90
45535;DHT22;35892;48.798;9.698;2022-10-20T06:04:17;9.90;99.90
45535;DHT22;35892;48.798;9.698;2022-10-20T06:06:50;9.90;99.90
45535;DHT22;35892;48.798;9.698;2022-10-20T06:09:18;10.00;99.90
45535;DHT22;35892;48.798;9.698;2022-10-20T06:11:45;10.00;99.90
45535;DHT22;35892;48.798;9.698;2022-10-20T06:14:16;10.00;99.90
45535;DHT22;35892;48.798;9.698;2022-10-20T06:16:49;10.10;99.90
45535;DHT22;35892;48.798;9.698;2022-10-20T06:19:17;10.10;99.90
45535;DHT22;35892;48.798;9.698;2022-10-20T06:21:46;10.20;99.90
45535;DHT22;35892;48.798;9.698;2022-10-20T06:24:15;10.20;99.90
45535;DHT22;35892;48.798;9.698;2022-10-20T06:26:43;10.20;99.90
45535;DHT22;35892;48.798;9.698;2022-10-20T06:29:15;10.20;99.90
45535;DHT22;35892;48.798;9.698;2022-10-20T06:31:45;10.20;99.90
45535;DHT22;35892;48.798;9.698;2022-10-20T06:34:17;10.20;99.90
45535;DHT22;35892;48.798;9.698;2022-10-20T06:36:45;10.20;99.90
45535;DHT22;35892;48.798;9.698;2022-10-20T06:39:21;10.30;99.90
45535;DHT22;35892;48.798;9.698;2022-10-20T06:41:52;10.30;99.90
45535;DHT22;35892;48.798;9.698;2022-10-20T06:44:25;10.30;99.90
45535;DHT22;35892;48.798;9.698;2022-10-20T06:46:52;10.40;99.90
45535;DHT22;35892;48.798;9.698;2022-10-20T06:49:20;10.40;99.90
45535;DHT22;35892;48.798;9.698;2022-10-20T06:51:49;10.50;99.90
45535;DHT22;35892;48.798;9.698;2022-10-20T06:54:17;10.60;99.90
45535;DHT22;35892;48.798;9.698;2022-10-20T06:56:44;10.60;99.90
45535;DHT22;35892;48.798;9.698;2022-10-20T06:59:10;10.70;99.90
45535;DHT22;35892;48.798;9.698;2022-10-20T07:01:38;10.70;99.90
45535;DHT22;35892;48.798;9.698;2022-10-20T07:04:14;10.70;99.90
45535;DHT22;35892;48.798;9.698;2022-10-20T07:06:44;10.70;99.90
45535;DHT22;35892;48.798;9.698;2022-10-20T07:09:17;10.80;99.90
45535;DHT22;35892;48.798;9.698;2022-10-20T07:11:44;10.80;99.90
45535;DHT22;35892;48.798;9.698;2022-10-20T07:14:13;10.90;99.90
45535;DHT22;35892;48.798;9.698;2022-10-20T07:16:42;11.00;99.90
45535;DHT22;35892;48.798;9.698;2022-10-20T07:19:09;11.10;99.90
45535;DHT22;35892;48.798;9.698;2022-10-20T07:21:36;11.10;99.90
45535;DHT22;35892;48.798;9.698;2022-10-20T07:24:07;11.20;99.90
45535;DHT22;35892;48.798;9.698;2022-10-20T07:26:37;11.20;99.90
45535;DHT22;35892;48.798;9.698;2022-10-20T07:29:08;11.30;99.90
45535;DHT22;35892;48.798;9.698;2022-10-20T07:31:41;11.30;99.90
45535;DHT22;35892;48.798;9.698;2022-10-20T07:34:13;11.40;99.90
45535;DHT22;35892;48.798;9.698;2022-10-20T07:36:52;11.50;99.90
45535;DHT22;35892;48.798;9.698;2022-10-20T07:39:19;11.60;99.90
45535;DHT22;35892;48.798;9.698;2022-10-20T07:41:50;11.60;99.90
45535;DHT22;35892;48.798;9.698;2022-10-20T07:44:17;11.80;99.90
45535;DHT22;35892;48.798;9.698;2022-10-20T07:46:46;11.90;99.90
45535;DHT22;35892;48.798;9.698;2022-10-20T07:49:15;12.00;99.90
45535;DHT22;35892;48.798;9.698;2022-10-20T07:52:04;12.10;99.90
45535;DHT22;35892;48.798;9.698;2022-10-20T07:54:31;12.20;99.90
45535;DHT22;35892;48.798;9.698;2022-10-20T07:56:58;12.20;99.90
45535;DHT22;35892;48.798;9.698;2022-10-20T07:59:27;12.20;99.90
45535;DHT22;35892;48.798;9.698;2022-10-20T08:01:55;12.30;99.90
45535;DHT22;35892;48.798;9.698;2022-10-20T08:04:25;12.30;99.90
45535;DHT22;35892;48.798;9.698;2022-10-20T08:06:58;12.40;99.90
45535;DHT22;35892;48.798;9.698;2022-10-20T08:09:25;12.60;99.90
45535;DHT22;35892;48.798;9.698;2022-10-20T08:11:54;12.80;99.90
45535;DHT22;35892;48.798;9.698;2022-10-20T08:14:24;12.90;99.90
45535;DHT22;35892;48.798;9.698;2022-10-20T08:17:02;13.00;99.90
45535;DHT22;35892;48.798;9.698;2022-10-20T08:19:29;13.20;99.90
45535;DHT22;35892;48.798;9.698;2022-10-20T08:22:02;13.30;99.90
45535;DHT22;35892;48.798;9.698;2022-10-20T08:24:29;13.50;99.90
45535;DHT22;35892;48.798;9.698;2022-10-20T08:27:00;13.70;99.90
45535;DHT22;35892;48.798;9.698;2022-10-20T08:29:29;13.80;99.90
45535;DHT22;35892;48.798;9.698;2022-10-20T08:31:58;13.90;99.90
45535;DHT22;35892;48.798;9.698;2022-10-20T08:34:25;14.10;99.90
45535;DHT22;35892;48.798;9.698;2022-10-20T08:36:52;14.10;99.90
45535;DHT22;35892;48.798;9.698;2022-10-20T08:39:19;14.20;99.90
45535;DHT22;35892;48.798;9.698;2022-10-20T08:41:49;14.30;99.90
45535;DHT22;35892;48.798;9.698;2022-10-20T08:44:38;14.40;99.90
45535;DHT22;35892;48.798;9.698;2022-10-20T08:47:16;14.40;99.90
45535;DHT22;35892;48.798;9.698;2022-10-20T08:49:45;14.50;99.90
45535;DHT22;35892;48.798;9.698;2022-10-20T08:52:12;14.50;99.90
45535;DHT22;35892;48.798;9.698;2022-10-20T08:54:43;14.60;99.90
45535;DHT22;35892;48.798;9.698;2022-10-20T08:57:22;14.60;99.90
45535;DHT22;35892;48.798;9.698;2022-10-20T08:59:53;14.60;99.90
45535;DHT22;35892;48.798;9.698;2022-10-20T09:02:22;14.60;99.90
45535;DHT22;35892;48.798;9.698;2022-10-20T09:04:55;14.70;99.90
45535;DHT22;35892;48.798;9.698;2022-10-20T09:10:01;14.90;99.90
45535;DHT22;35892;48.798;9.698;2022-10-20T09:12:33;15.00;99.90
45535;DHT22;35892;48.798;9.698;2022-10-20T09:15:01;15.00;99.90
45535;DHT22;35892;48.798;9.698;2022-10-20T09:17:27;15.10;99.90
45535;DHT22;35892;48.798;9.698;2022-10-20T09:19:55;15.10;99.90
45535;DHT22;35892;48.798;9.698;2022-10-20T09:22:26;15.10;99.90
45535;DHT22;35892;48.798;9.698;2022-10-20T09:25:03;15.10;99.90
45535;DHT22;35892;48.798;9.698;2022-10-20T09:27:36;15.10;99.90
45535;DHT22;35892;48.798;9.698;2022-10-20T09:30:31;15.10;99.90
45535;DHT22;35892;48.798;9.698;2022-10-20T09:33:36;15.10;99.90
45535;DHT22;35892;48.798;9.698;2022-10-20T09:36:11;15.20;99.90
45535;DHT22;35892;48.798;9.698;2022-10-20T09:38:43;15.30;99.90
45535;DHT22;35892;48.798;9.698;2022-10-20T09:41:18;15.20;99.90
45535;DHT22;35892;48.798;9.698;2022-10-20T09:44:11;15.20;99.90
45535;DHT22;35892;48.798;9.698;2022-10-20T09:46:49;15.30;99.90
45535;DHT22;35892;48.798;9.698;2022-10-20T09:51:56;15.50;99.90
45535;DHT22;35892;48.798;9.698;2022-10-20T09:54:25;15.50;99.90
45535;DHT22;35892;48.798;9.698;2022-10-20T09:57:04;15.50;99.90
45535;DHT22;35892;48.798;9.698;2022-10-20T09:59:38;15.60;99.90
45535;DHT22;35892;48.798;9.698;2022-10-20T10:04:41;15.60;99.90
45535;DHT22;35892;48.798;9.698;2022-10-20T10:09:59;15.60;99.90
45535;DHT22;35892;48.798;9.698;2022-10-20T10:12:33;15.60;99.90
45535;DHT22;35892;48.798;9.698;2022-10-20T10:15:22;15.80;99.90
45535;DHT22;35892;48.798;9.698;2022-10-20T10:17:53;15.80;99.90
45535;DHT22;35892;48.798;9.698;2022-10-20T10:20:35;15.80;99.90
45535;DHT22;35892;48.798;9.698;2022-10-20T10:23:22;15.80;99.90
45535;DHT22;35892;48.798;9.698;2022-10-20T10:25:55;15.80;99.90
45535;DHT22;35892;48.798;9.698;2022-10-20T10:28:35;15.80;99.90
45535;DHT22;35892;48.798;9.698;2022-10-20T10:31:28;15.90;99.90
45535;DHT22;35892;48.798;9.698;2022-10-20T10:36:41;16.10;99.90
45535;DHT22;35892;48.798;9.698;2022-10-20T10:39:14;16.20;99.90
45535;DHT22;35892;48.798;9.698;2022-10-20T10:44:36;16.40;99.90
45535;DHT22;35892;48.798;9.698;2022-10-20T11:01:04;16.90;99.90
45535;DHT22;35892;48.798;9.698;2022-10-20T11:09:57;17.50;99.90
45535;DHT22;35892;48.798;9.698;2022-10-20T11:13:07;17.50;99.90
45535;DHT22;35892;48.798;9.698;2022-10-20T11:23:56;17.50;99.90
45535;DHT22;35892;48.798;9.698;2022-10-20T11:28:55;17.60;99.90
45535;DHT22;35892;48.798;9.698;2022-10-20T11:37:12;17.70;99.90
45535;DHT22;35892;48.798;9.698;2022-10-20T11:40:02;17.90;99.90
45535;DHT22;35892;48.798;9.698;2022-10-20T11:42:59;18.00;99.90
45535;DHT22;35892;48.798;9.698;2022-10-20T11:46:03;18.00;99.90
45535;DHT22;35892;48.798;9.698;2022-10-20T11:48:37;17.90;99.90
45535;DHT22;35892;48.798;9.698;2022-10-20T11:53:44;17.90;99.90
45535;DHT22;35892;48.798;9.698;2022-10-20T12:13:06;17.50;99.90
45535;DHT22;35892;48.798;9.698;2022-10-20T12:15:48;17.50;99.90
45535;DHT22;35892;48.798;9.698;2022-10-20T12:18:33;17.50;99.90
45535;DHT22;35892;48.798;9.698;2022-10-20T12:21:02;17.50;99.90
45535;DHT22;35892;48.798;9.698;2022-10-20T12:37:58;18.00;99.90
45535;DHT22;35892;48.798;9.698;2022-10-20T12:40:31;18.00;99.90
45535;DHT22;35892;48.798;9.698;2022-10-20T12:43:01;18.00;99.90
45535;DHT22;35892;48.798;9.698;2022-10-20T12:45:38;18.00;99.90
45535;DHT22;35892;48.798;9.698;2022-10-20T12:48:16;17.90;99.90
45535;DHT22;35892;48.798;9.698;2022-10-20T12:50:47;17.80;99.90
45535;DHT22;35892;48.798;9.698;2022-10-20T12:56:06;17.50;99.90
45535;DHT22;35892;48.798;9.698;2022-10-20T12:58:39;17.40;99.90
45535;DHT22;35892;48.798;9.698;2022-10-20T13:01:21;17.30;99.90
45535;DHT22;35892;48.798;9.698;2022-10-20T13:03:53;17.30;99.90
45535;DHT22;35892;48.798;9.698;2022-10-20T13:16:49;17.60;99.90
45535;DHT22;35892;48.798;9.698;2022-10-20T13:22:46;17.70;99.90
45535;DHT22;35892;48.798;9.698;2022-10-20T13:25:25;17.80;99.90
45535;DHT22;35892;48.798;9.698;2022-10-20T13:28:06;17.80;99.90
45535;DHT22;35892;48.798;9.698;2022-10-20T13:45:06;17.60;99.90
45535;DHT22;35892;48.798;9.698;2022-10-20T13:47:44;17.60;99.90
45535;DHT22;35892;48.798;9.698;2022-10-20T13:50:38;17.70;99.90
45535;DHT22;35892;48.798;9.698;2022-10-20T13:58:35;18.00;99.90
45535;DHT22;35892;48.798;9.698;2022-10-20T14:01:05;18.00;99.90
45535;DHT22;35892;48.798;9.698;2022-10-20T14:03:40;18.00;99.90
45535;DHT22;35892;48.798;9.698;2022-10-20T14:06:31;17.90;99.90
45535;DHT22;35892;48.798;9.698;2022-10-20T14:09:09;17.90;99.90
45535;DHT22;35892;48.798;9.698;2022-10-20T14:11:36;17.90;99.90
45535;DHT22;35892;48.798;9.698;2022-10-20T14:14:03;17.90;99.90
45535;DHT22;35892;48.798;9.698;2022-10-20T14:16:35;17.80;99.90
45535;DHT22;35892;48.798;9.698;2022-10-20T14:19:11;17.80;99.90
45535;DHT22;35892;48.798;9.698;2022-10-20T14:21:45;17.80;99.90
45535;DHT22;35892;48.798;9.698;2022-10-20T14:26:55;17.70;99.90
45535;DHT22;35892;48.798;9.698;2022-10-20T14:29:32;17.60;99.90
45535;DHT22;35892;48.798;9.698;2022-10-20T14:32:00;17.60;99.90
45535;DHT22;35892;48.798;9.698;2022-10-20T14:34:29;17.50;99.90
45535;DHT22;35892;48.798;9.698;2022-10-20T14:36:59;17.50;99.90
45535;DHT22;35892;48.798;9.698;2022-10-20T14:39:36;17.40;99.90
45535;DHT22;35892;48.798;9.698;2022-10-20T14:42:22;17.30;99.90
45535;DHT22;35892;48.798;9.698;2022-10-20T14:44:53;17.30;99.90
45535;DHT22;35892;48.798;9.698;2022-10-20T14:47:31;17.30;99.90
45535;DHT22;35892;48.798;9.698;2022-10-20T14:49:58;17.20;99.90
45535;DHT22;35892;48.798;9.698;2022-10-20T14:52:31;17.20;99.90
45535;DHT22;35892;48.798;9.698;2022-10-20T14:55:01;17.20;99.90
45535;DHT22;35892;48.798;9.698;2022-10-20T14:57:37;17.10;99.90
45535;DHT22;35892;48.798;9.698;2022-10-20T15:00:28;17.10;99.90
45535;DHT22;35892;48.798;9.698;2022-10-20T15:02:59;17.10;99.90
45535;DHT22;35892;48.798;9.698;2022-10-20T15:07:55;17.00;99.90
45535;DHT22;35892;48.798;9.698;2022-10-20T15:10:26;16.90;99.90
45535;DHT22;35892;48.798;9.698;2022-10-20T15:12:53;16.90;99.90
45535;DHT22;35892;48.798;9.698;2022-10-20T15:15:23;16.90;99.90
45535;DHT22;35892;48.798;9.698;2022-10-20T15:23:08;16.70;99.90
45535;DHT22;35892;48.798;9.698;2022-10-20T15:28:38;16.60;99.90
45535;DHT22;35892;48.798;9.698;2022-10-20T15:33:50;16.50;99.90
45535;DHT22;35892;48.798;9.698;2022-10-20T15:36:29;16.50;99.90
45535;DHT22;35892;48.798;9.698;2022-10-20T15:39:01;16.40;99.90
45535;DHT22;35892;48.798;9.698;2022-10-20T15:41:34;16.50;99.90
45535;DHT22;35892;48.798;9.698;2022-10-20T15:44:20;16.40;99.90
45535;DHT22;35892;48.798;9.698;2022-10-20T15:46:49;16.30;99.90
45535;DHT22;35892;48.798;9.698;2022-10-20T15:49:21;16.30;99.90
45535;DHT22;35892;48.798;9.698;2022-10-20T15:51:48;16.20;99.90
45535;DHT22;35892;48.798;9.698;2022-10-20T15:54:19;16.20;99.90
45535;DHT22;35892;48.798;9.698;2022-10-20T15:56:49;16.20;99.90
45535;DHT22;35892;48.798;9.698;2022-10-20T15:59:18;16.30;99.90
45535;DHT22;35892;48.798;9.698;2022-10-20T16:01:49;16.20;99.90
45535;DHT22;35892;48.798;9.698;2022-10-20T16:04:22;16.10;99.90
45535;DHT22;35892;48.798;9.698;2022-10-20T16:06:55;16.10;99.90
45535;DHT22;35892;48.798;9.698;2022-10-20T16:09:28;16.00;99.90
45535;DHT22;35892;48.798;9.698;2022-10-20T16:11:59;15.90;99.90
45535;DHT22;35892;48.798;9.698;2022-10-20T16:14:26;15.90;99.90
45535;DHT22;35892;48.798;9.698;2022-10-20T16:16:57;15.90;99.90
45535;DHT22;35892;48.798;9.698;2022-10-20T16:19:27;15.80;99.90
45535;DHT22;35892;48.798;9.698;2022-10-20T16:21:58;15.70;99.90
45535;DHT22;35892;48.798;9.698;2022-10-20T16:24:27;15.60;99.90
45535;DHT22;35892;48.798;9.698;2022-10-20T16:26:56;15.60;99.90
45535;DHT22;35892;48.798;9.698;2022-10-20T16:29:23;15.60;99.90
45535;DHT22;35892;48.798;9.698;2022-10-20T16:31:50;15.60;99.90
45535;DHT22;35892;48.798;9.698;2022-10-20T16:34:19;15.50;99.90
45535;DHT22;35892;48.798;9.698;2022-10-20T16:36:49;15.50;99.90
45535;DHT22;35892;48.798;9.698;2022-10-20T16:39:19;15.50;99.90
45535;DHT22;35892;48.798;9.698;2022-10-20T16:41:50;15.50;99.90
45535;DHT22;35892;48.798;9.698;2022-10-20T16:44:19;15.50;99.90
45535;DHT22;35892;48.798;9.698;2022-10-20T16:46:46;15.40;99.90
45535;DHT22;35892;48.798;9.698;2022-10-20T16:49:15;15.40;99.90
45535;DHT22;35892;48.798;9.698;2022-10-20T16:51:46;15.40;99.90
45535;DHT22;35892;48.798;9.698;2022-10-20T16:54:15;15.30;99.90
45535;DHT22;35892;48.798;9.698;2022-10-20T16:56:44;15.30;99.90
45535;DHT22;35892;48.798;9.698;2022-10-20T16:59:11;15.20;99.90
45535;DHT22;35892;48.798;9.698;2022-10-20T17:01:38;15.10;99.90
45535;DHT22;35892;48.798;9.698;2022-10-20T17:04:09;15.10;99.90
45535;DHT22;35892;48.798;9.698;2022-10-20T17:06:36;15.10;99.90
45535;DHT22;35892;48.798;9.698;2022-10-20T17:09:03;15.10;99.90
45535;DHT22;35892;48.798;9.698;2022-10-20T17:11:31;15.10;99.90
45535;DHT22;35892;48.798;9.698;2022-10-20T17:13:58;15.00;99.90
45535;DHT22;35892;48.798;9.698;2022-10-20T17:16:28;15.00;99.90
45535;DHT22;35892;48.798;9.698;2022-10-20T17:18:57;14.90;99.90
45535;DHT22;35892;48.798;9.698;2022-10-20T17:21:25;15.00;99.90
45535;DHT22;35892;48.798;9.698;2022-10-20T17:23:54;14.90;99.90
45535;DHT22;35892;48.798;9.698;2022-10-20T17:26:26;14.90;99.90
45535;DHT22;35892;48.798;9.698;2022-10-20T17:28:58;14.90;99.90
45535;DHT22;35892;48.798;9.698;2022-10-20T17:31:25;14.90;99.90
45535;DHT22;35892;48.798;9.698;2022-10-20T17:33:52;14.90;99.90
45535;DHT22;35892;48.798;9.698;2022-10-20T17:36:22;14.90;99.90
45535;DHT22;35892;48.798;9.698;2022-10-20T17:39:06;14.80;99.90
45535;DHT22;35892;48.798;9.698;2022-10-20T17:41:34;14.80;99.90
45535;DHT22;35892;48.798;9.698;2022-10-20T17:44:02;14.80;99.90
45535;DHT22;35892;48.798;9.698;2022-10-20T17:46:32;14.80;99.90
45535;DHT22;35892;48.798;9.698;2022-10-20T17:49:01;14.80;99.90
45535;DHT22;35892;48.798;9.698;2022-10-20T17:51:28;14.70;99.90
45535;DHT22;35892;48.798;9.698;2022-10-20T17:54:00;14.70;99.90
45535;DHT22;35892;48.798;9.698;2022-10-20T17:56:31;14.70;99.90
45535;DHT22;35892;48.798;9.698;2022-10-20T17:58:59;14.70;99.90
45535;DHT22;35892;48.798;9.698;2022-10-20T18:01:39;14.70;99.90
45535;DHT22;35892;48.798;9.698;2022-10-20T18:04:14;14.60;99.90
45535;DHT22;35892;48.798;9.698;2022-10-20T18:06:43;14.60;99.90
45535;DHT22;35892;48.798;9.698;2022-10-20T18:09:15;14.60;99.90
45535;DHT22;35892;48.798;9.698;2022-10-20T18:11:49;14.70;99.90
45535;DHT22;35892;48.798;9.698;2022-10-20T18:14:19;14.70;99.90
45535;DHT22;35892;48.798;9.698;2022-10-20T18:16:46;14.70;99.90
45535;DHT22;35892;48.798;9.698;2022-10-20T18:19:16;14.70;99.90
45535;DHT22;35892;48.798;9.698;2022-10-20T18:21:43;14.70;99.90
45535;DHT22;35892;48.798;9.698;2022-10-20T18:24:14;14.70;99.90
45535;DHT22;35892;48.798;9.698;2022-10-20T18:26:44;14.80;99.90
45535;DHT22;35892;48.798;9.698;2022-10-20T18:29:12;14.80;99.90
45535;DHT22;35892;48.798;9.698;2022-10-20T18:31:45;14.80;99.90
45535;DHT22;35892;48.798;9.698;2022-10-20T18:34:17;14.70;99.90
45535;DHT22;35892;48.798;9.698;2022-10-20T18:36:47;14.70;99.90
45535;DHT22;35892;48.798;9.698;2022-10-20T18:39:16;14.60;99.90
45535;DHT22;35892;48.798;9.698;2022-10-20T18:41:49;14.60;99.90
45535;DHT22;35892;48.798;9.698;2022-10-20T18:44:20;14.60;99.90
45535;DHT22;35892;48.798;9.698;2022-10-20T18:46:49;14.60;99.90